Time;durP1;ratioP1;P1;durP2;ratioP2;P2;SDS_P1;SDS_P2;PMS_P1;PMS_P2;Temp;Humidity;BMP_temperature;BMP_pressure;BME280_temperature;BME280_humidity;BME280_pressure;Samples;Min_cycle;Max_cycle;Signal;HPM_P1;HPM_P2
2022/06/28 00:01:35;;;;;;;;;;;9.10;99.90;;;;;;5074227;28;19912;-71
2022/06/28 00:04:02;;;;;;;;;;;9.30;99.90;;;;;;5074306;28;19915;-71
2022/06/28 00:06:29;;;;;;;;;;;9.30;99.90;;;;;;5074145;28;19909;-71
2022/06/28 00:08:56;;;;;;;;;;;9.40;99.90;;;;;;5074339;28;20261;-71
2022/06/28 00:11:23;;;;;;;;;;;9.50;99.90;;;;;;5074258;28;19908;-71
2022/06/28 00:13:50;;;;;;;;;;;9.50;99.90;;;;;;5074235;28;19978;-71
2022/06/28 00:16:18;;;;;;;;;;;9.60;99.90;;;;;;5074188;28;19908;-71
2022/06/28 00:18:46;;;;;;;;;;;9.70;99.90;;;;;;5074094;28;19927;-71
2022/06/28 00:21:13;;;;;;;;;;;9.60;99.90;;;;;;5074291;28;20380;-72
2022/06/28 00:23:42;;;;;;;;;;;9.60;99.90;;;;;;5074454;28;19908;-72
2022/06/28 00:26:10;;;;;;;;;;;9.60;99.90;;;;;;5074061;28;19909;-71
2022/06/28 00:28:36;;;;;;;;;;;9.70;99.90;;;;;;5074169;28;19947;-71
2022/06/28 00:31:04;;;;;;;;;;;9.70;99.90;;;;;;5072752;28;20254;-71
2022/06/28 00:33:31;;;;;;;;;;;9.70;99.90;;;;;;5074016;28;19909;-71
2022/06/28 00:35:58;;;;;;;;;;;9.90;99.90;;;;;;5073827;28;19963;-72
2022/06/28 00:38:25;;;;;;;;;;;9.90;99.90;;;;;;5073510;28;19928;-71
2022/06/28 00:40:52;;;;;;;;;;;10.00;99.90;;;;;;5073983;28;19991;-71
2022/06/28 00:43:20;;;;;;;;;;;10.00;99.90;;;;;;5073910;28;19962;-71
2022/06/28 00:45:47;;;;;;;;;;;10.10;99.90;;;;;;5073890;28;19909;-71
2022/06/28 00:48:15;;;;;;;;;;;10.10;99.90;;;;;;5073861;28;19909;-71
2022/06/28 00:50:42;;;;;;;;;;;10.30;99.90;;;;;;5073719;28;19908;-71
2022/06/28 00:53:11;;;;;;;;;;;10.30;99.90;;;;;;5073726;28;19915;-71
2022/06/28 00:55:38;;;;;;;;;;;10.40;99.90;;;;;;5073688;28;19908;-71
2022/06/28 00:58:05;;;;;;;;;;;10.40;99.90;;;;;;5073504;28;19919;-72
2022/06/28 01:00:34;;;;;;;;;;;10.40;99.90;;;;;;5073715;28;19970;-72
2022/06/28 01:03:01;;;;;;;;;;;10.40;99.90;;;;;;5073796;28;19916;-71
2022/06/28 01:05:28;;;;;;;;;;;10.50;99.90;;;;;;5073332;28;19908;-72
2022/06/28 01:07:56;;;;;;;;;;;10.70;99.90;;;;;;5073783;28;19913;-71
2022/06/28 01:10:26;;;;;;;;;;;10.80;99.90;;;;;;5073709;28;20353;-71
2022/06/28 01:12:53;;;;;;;;;;;10.90;99.90;;;;;;5077936;28;19909;-72
2022/06/28 01:15:20;;;;;;;;;;;11.00;99.90;;;;;;5077700;28;19912;-72
2022/06/28 01:17:47;;;;;;;;;;;11.00;99.90;;;;;;5077598;28;19962;-71
2022/06/28 01:20:14;;;;;;;;;;;11.10;99.90;;;;;;5077440;28;20418;-71
2022/06/28 01:22:41;;;;;;;;;;;11.30;99.90;;;;;;5077521;28;20003;-72
2022/06/28 01:25:09;;;;;;;;;;;11.30;99.90;;;;;;5077757;28;19955;-72
2022/06/28 01:27:36;;;;;;;;;;;11.30;99.90;;;;;;5077487;28;19952;-71
2022/06/28 01:30:07;;;;;;;;;;;11.30;99.90;;;;;;5077449;28;20403;-71
2022/06/28 01:32:34;;;;;;;;;;;11.40;99.90;;;;;;5077449;28;19962;-71
2022/06/28 01:35:01;;;;;;;;;;;11.40;99.90;;;;;;5077167;28;19916;-71
2022/06/28 01:37:29;;;;;;;;;;;11.50;99.90;;;;;;5076804;28;19928;-71
2022/06/28 01:39:55;;;;;;;;;;;11.60;99.90;;;;;;5077027;28;19920;-71
2022/06/28 01:42:22;;;;;;;;;;;11.50;99.90;;;;;;5077102;28;19954;-71
2022/06/28 01:44:49;;;;;;;;;;;11.50;99.90;;;;;;5077161;28;19954;-72
2022/06/28 01:47:18;;;;;;;;;;;11.60;99.90;;;;;;5076960;28;19961;-71
2022/06/28 01:49:45;;;;;;;;;;;11.70;99.90;;;;;;5077505;28;19919;-72
2022/06/28 01:52:12;;;;;;;;;;;11.80;99.90;;;;;;5076874;28;19962;-71
2022/06/28 01:54:38;;;;;;;;;;;12.00;99.90;;;;;;5076925;28;20375;-71
2022/06/28 01:57:05;;;;;;;;;;;12.10;99.90;;;;;;5076809;28;19916;-71
2022/06/28 01:59:32;;;;;;;;;;;12.20;99.90;;;;;;5076812;28;19916;-71
2022/06/28 02:01:59;;;;;;;;;;;12.20;99.90;;;;;;5077000;28;19912;-71
2022/06/28 02:04:27;;;;;;;;;;;12.20;99.90;;;;;;5076746;28;19916;-71
2022/06/28 02:06:54;;;;;;;;;;;12.20;99.90;;;;;;5076722;28;19986;-71
2022/06/28 02:09:21;;;;;;;;;;;12.20;99.90;;;;;;5076432;28;20096;-72
2022/06/28 02:11:48;;;;;;;;;;;12.20;99.90;;;;;;5076615;28;19914;-72
2022/06/28 02:14:15;;;;;;;;;;;12.20;99.90;;;;;;5076335;28;19919;-72
2022/06/28 02:16:41;;;;;;;;;;;12.20;99.90;;;;;;5076355;28;20382;-72
2022/06/28 02:19:08;;;;;;;;;;;12.30;99.90;;;;;;5076240;28;19923;-72
2022/06/28 02:21:41;;;;;;;;;;;12.30;99.90;;;;;;5076777;28;19948;-72
2022/06/28 02:24:09;;;;;;;;;;;12.40;99.90;;;;;;5075674;28;19914;-72
2022/06/28 02:26:36;;;;;;;;;;;12.60;99.90;;;;;;5076143;28;19973;-72
2022/06/28 02:29:03;;;;;;;;;;;12.60;99.90;;;;;;5076179;28;19909;-72
2022/06/28 02:31:33;;;;;;;;;;;12.60;99.90;;;;;;5076550;28;19909;-72
2022/06/28 02:34:00;;;;;;;;;;;12.70;99.90;;;;;;5076117;28;19909;-72
2022/06/28 02:41:54;;;;;;;;;;;12.60;99.90;;;;;;5076101;28;20265;-72
2022/06/28 02:44:21;;;;;;;;;;;12.60;99.90;;;;;;5075929;28;19915;-72
2022/06/28 02:46:48;;;;;;;;;;;12.50;99.90;;;;;;5076384;28;19961;-72
2022/06/28 02:49:15;;;;;;;;;;;12.50;99.90;;;;;;5075850;28;19913;-72
2022/06/28 02:51:42;;;;;;;;;;;12.50;99.90;;;;;;5075972;28;19916;-72
2022/06/28 02:54:09;;;;;;;;;;;12.50;99.90;;;;;;5075751;28;19908;-72
2022/06/28 02:56:37;;;;;;;;;;;12.60;99.90;;;;;;5075825;28;19908;-72
2022/06/28 02:59:04;;;;;;;;;;;12.60;99.90;;;;;;5075666;28;20020;-72
2022/06/28 03:01:31;;;;;;;;;;;12.60;99.90;;;;;;5075812;28;19916;-72
2022/06/28 03:03:58;;;;;;;;;;;12.50;99.90;;;;;;5075615;28;19954;-72
2022/06/28 03:06:25;;;;;;;;;;;12.30;99.90;;;;;;5075488;28;19909;-71
2022/06/28 03:08:52;;;;;;;;;;;12.30;99.90;;;;;;5075409;28;19914;-72
2022/06/28 03:11:19;;;;;;;;;;;12.30;99.90;;;;;;5075336;28;20277;-72
2022/06/28 03:13:46;;;;;;;;;;;12.20;99.90;;;;;;5075511;28;19909;-72
2022/06/28 03:16:13;;;;;;;;;;;12.10;99.90;;;;;;5075342;28;20270;-72
2022/06/28 03:18:39;;;;;;;;;;;12.00;99.90;;;;;;5075114;28;19916;-72
2022/06/28 03:21:06;;;;;;;;;;;12.00;99.90;;;;;;5075272;28;19918;-72
2022/06/28 03:23:33;;;;;;;;;;;11.90;99.90;;;;;;5075224;28;19951;-72
2022/06/28 03:26:00;;;;;;;;;;;11.90;99.90;;;;;;5075223;28;20293;-72
2022/06/28 03:28:27;;;;;;;;;;;11.90;99.90;;;;;;5107616;28;19948;-72
2022/06/28 03:30:53;;;;;;;;;;;11.90;99.90;;;;;;5073993;28;19931;-72
2022/06/28 03:33:20;;;;;;;;;;;11.80;99.90;;;;;;5074890;28;20361;-72
2022/06/28 03:35:47;;;;;;;;;;;11.90;99.90;;;;;;5074836;28;20254;-71
2022/06/28 03:38:14;;;;;;;;;;;11.90;99.90;;;;;;5074514;28;19921;-71
2022/06/28 03:40:41;;;;;;;;;;;11.90;99.90;;;;;;5074906;28;20324;-71
2022/06/28 03:43:08;;;;;;;;;;;11.90;99.90;;;;;;5074973;28;19908;-72
2022/06/28 03:45:35;;;;;;;;;;;11.90;99.90;;;;;;5074613;28;19912;-72
2022/06/28 03:48:01;;;;;;;;;;;11.90;99.90;;;;;;5074945;28;19913;-72
2022/06/28 03:50:28;;;;;;;;;;;11.90;99.90;;;;;;5074638;28;19962;-71
2022/06/28 03:52:55;;;;;;;;;;;12.00;99.90;;;;;;5074596;28;19912;-72
2022/06/28 03:55:22;;;;;;;;;;;12.00;99.90;;;;;;5074499;28;19932;-72
2022/06/28 03:57:49;;;;;;;;;;;12.00;99.90;;;;;;5074491;28;19985;-72
2022/06/28 04:00:16;;;;;;;;;;;12.00;99.90;;;;;;5072996;28;20280;-72
2022/06/28 04:02:43;;;;;;;;;;;12.00;99.90;;;;;;5074377;28;19909;-72
2022/06/28 04:05:10;;;;;;;;;;;11.90;99.90;;;;;;5074369;28;20302;-72
2022/06/28 04:07:37;;;;;;;;;;;11.90;99.90;;;;;;5074204;28;19909;-72
2022/06/28 04:10:04;;;;;;;;;;;11.80;99.90;;;;;;5074482;28;19916;-72
2022/06/28 04:12:31;;;;;;;;;;;11.80;99.90;;;;;;5074395;28;19915;-72
2022/06/28 04:14:57;;;;;;;;;;;11.80;99.90;;;;;;5074066;28;19915;-72
2022/06/28 04:17:24;;;;;;;;;;;11.80;99.90;;;;;;5074365;28;19951;-72
2022/06/28 04:19:51;;;;;;;;;;;11.80;99.90;;;;;;5074169;28;20332;-72
2022/06/28 04:22:18;;;;;;;;;;;11.70;99.90;;;;;;5074214;28;19908;-72
2022/06/28 04:24:45;;;;;;;;;;;11.70;99.90;;;;;;5074268;28;19918;-72
2022/06/28 04:27:14;;;;;;;;;;;11.80;99.90;;;;;;5073947;28;20007;-72
2022/06/28 04:29:42;;;;;;;;;;;11.80;99.90;;;;;;5073974;28;20377;-72
2022/06/28 04:32:08;;;;;;;;;;;11.90;99.90;;;;;;5074123;28;19910;-72
2022/06/28 04:34:35;;;;;;;;;;;11.90;99.90;;;;;;5073834;28;19912;-72
2022/06/28 04:37:02;;;;;;;;;;;12.00;99.90;;;;;;5073990;28;19912;-72
2022/06/28 04:39:29;;;;;;;;;;;12.10;99.90;;;;;;5073889;28;19916;-72
2022/06/28 04:41:56;;;;;;;;;;;12.20;99.90;;;;;;5074077;28;19908;-71
2022/06/28 04:44:23;;;;;;;;;;;12.30;99.90;;;;;;5073955;28;19909;-72
2022/06/28 04:46:50;;;;;;;;;;;12.40;99.90;;;;;;5073340;28;19908;-71
2022/06/28 04:49:17;;;;;;;;;;;12.40;99.90;;;;;;5074048;28;19916;-71
2022/06/28 04:51:44;;;;;;;;;;;12.40;99.90;;;;;;5074007;28;19913;-72
2022/06/28 04:54:11;;;;;;;;;;;12.40;99.90;;;;;;5073802;28;19995;-72
2022/06/28 04:56:38;;;;;;;;;;;12.40;99.90;;;;;;5073779;28;19916;-72
2022/06/28 04:59:05;;;;;;;;;;;12.40;99.90;;;;;;5073676;28;20046;-72
2022/06/28 05:01:32;;;;;;;;;;;12.30;99.90;;;;;;5073834;28;20353;-71
2022/06/28 05:03:58;;;;;;;;;;;12.40;99.90;;;;;;5073799;28;19912;-72
2022/06/28 05:06:25;;;;;;;;;;;12.40;99.90;;;;;;5073796;28;20376;-72
2022/06/28 05:08:52;;;;;;;;;;;12.40;99.90;;;;;;5073779;28;19908;-72
2022/06/28 05:11:19;;;;;;;;;;;12.40;99.90;;;;;;5073728;28;20038;-72
2022/06/28 05:13:45;;;;;;;;;;;12.40;99.90;;;;;;5073859;28;19908;-72
2022/06/28 05:16:12;;;;;;;;;;;12.40;99.90;;;;;;5073480;28;19909;-72
2022/06/28 05:18:39;;;;;;;;;;;12.40;99.90;;;;;;5073600;28;19917;-72
2022/06/28 05:21:06;;;;;;;;;;;12.50;99.90;;;;;;5073650;28;19909;-72
2022/06/28 05:23:33;;;;;;;;;;;12.40;99.90;;;;;;5073637;28;20330;-72
2022/06/28 05:26:00;;;;;;;;;;;12.40;99.90;;;;;;5073394;28;19916;-72
2022/06/28 05:28:27;;;;;;;;;;;12.40;99.90;;;;;;5073591;28;20077;-72
2022/06/28 05:30:53;;;;;;;;;;;12.40;99.90;;;;;;5073293;28;20038;-72
2022/06/28 05:33:21;;;;;;;;;;;12.40;99.90;;;;;;5073564;28;20353;-72
2022/06/28 05:35:47;;;;;;;;;;;12.40;99.90;;;;;;5073243;28;19915;-72
2022/06/28 05:38:14;;;;;;;;;;;12.40;99.90;;;;;;5072949;28;20383;-72
2022/06/28 05:40:41;;;;;;;;;;;12.40;99.90;;;;;;5073305;28;20319;-72
2022/06/28 05:43:08;;;;;;;;;;;12.40;99.90;;;;;;5073362;28;20030;-72
2022/06/28 05:45:35;;;;;;;;;;;12.40;99.90;;;;;;5073370;28;19913;-72
2022/06/28 05:48:02;;;;;;;;;;;12.30;99.90;;;;;;5073103;28;19909;-72
2022/06/28 05:50:29;;;;;;;;;;;12.30;99.90;;;;;;5073481;28;19912;-72
2022/06/28 05:52:56;;;;;;;;;;;12.30;99.90;;;;;;5073100;28;19962;-72
2022/06/28 05:55:23;;;;;;;;;;;12.20;99.90;;;;;;5073060;28;19908;-72
2022/06/28 05:57:50;;;;;;;;;;;12.20;99.90;;;;;;5073748;28;19915;-72
2022/06/28 06:00:17;;;;;;;;;;;12.20;99.90;;;;;;5076687;28;20365;-72
2022/06/28 06:02:44;;;;;;;;;;;12.10;99.90;;;;;;5076956;28;19909;-72
2022/06/28 06:05:11;;;;;;;;;;;12.10;99.90;;;;;;5075429;28;19959;-72
2022/06/28 06:07:38;;;;;;;;;;;12.20;99.90;;;;;;5076530;28;19912;-72
2022/06/28 06:10:05;;;;;;;;;;;12.10;99.90;;;;;;5076678;28;20008;-72
2022/06/28 06:12:32;;;;;;;;;;;12.10;99.90;;;;;;5076599;28;20339;-72
2022/06/28 06:14:59;;;;;;;;;;;12.00;99.90;;;;;;5076677;28;20065;-72
2022/06/28 06:17:26;;;;;;;;;;;12.00;99.90;;;;;;5076474;28;19908;-72
2022/06/28 06:19:53;;;;;;;;;;;12.00;99.90;;;;;;5076536;28;19916;-72
2022/06/28 06:22:19;;;;;;;;;;;12.00;99.90;;;;;;5076722;28;19916;-72
2022/06/28 06:24:49;;;;;;;;;;;12.00;99.90;;;;;;5076383;28;19962;-72
2022/06/28 06:27:16;;;;;;;;;;;12.00;99.90;;;;;;5076305;28;19954;-72
2022/06/28 06:29:43;;;;;;;;;;;11.90;99.90;;;;;;5076477;28;19908;-72
2022/06/28 06:32:10;;;;;;;;;;;11.90;99.90;;;;;;5076132;28;20007;-72
2022/06/28 06:34:37;;;;;;;;;;;11.90;99.90;;;;;;5108788;28;19956;-72
2022/06/28 06:37:05;;;;;;;;;;;11.90;99.90;;;;;;5073730;28;19912;-72
2022/06/28 06:39:32;;;;;;;;;;;11.90;99.90;;;;;;5076312;28;19959;-72
2022/06/28 06:41:58;;;;;;;;;;;11.90;99.90;;;;;;5076486;28;19909;-72
2022/06/28 06:44:26;;;;;;;;;;;11.90;99.90;;;;;;5076119;28;19912;-72
2022/06/28 06:46:52;;;;;;;;;;;11.90;99.90;;;;;;5075938;28;20412;-72
2022/06/28 06:49:19;;;;;;;;;;;11.80;99.90;;;;;;5076093;28;19999;-72
2022/06/28 06:51:48;;;;;;;;;;;11.80;99.90;;;;;;5075971;28;20436;-72
2022/06/28 06:54:15;;;;;;;;;;;11.80;99.90;;;;;;5075827;28;19915;-72
2022/06/28 06:56:42;;;;;;;;;;;11.80;99.90;;;;;;5075916;28;19909;-72
2022/06/28 06:59:11;;;;;;;;;;;11.80;99.90;;;;;;5075800;28;19924;-72
2022/06/28 07:01:38;;;;;;;;;;;11.80;99.90;;;;;;5076421;28;19914;-72
2022/06/28 07:04:05;;;;;;;;;;;11.80;99.90;;;;;;5075894;28;20050;-72
2022/06/28 07:06:32;;;;;;;;;;;11.80;99.90;;;;;;5075629;28;19909;-72
2022/06/28 07:08:58;;;;;;;;;;;11.80;99.90;;;;;;5075313;28;19915;-72
2022/06/28 07:11:25;;;;;;;;;;;11.80;99.90;;;;;;5075720;28;19916;-72
2022/06/28 07:13:52;;;;;;;;;;;11.80;99.90;;;;;;5075577;28;19915;-72
2022/06/28 07:16:18;;;;;;;;;;;11.80;99.90;;;;;;5075681;28;19909;-72
2022/06/28 07:18:45;;;;;;;;;;;11.90;99.90;;;;;;5075217;28;19916;-72
2022/06/28 07:21:11;;;;;;;;;;;11.80;99.90;;;;;;5075483;28;19912;-72
2022/06/28 07:23:38;;;;;;;;;;;11.80;99.90;;;;;;5075319;28;19908;-72
2022/06/28 07:26:05;;;;;;;;;;;11.90;99.90;;;;;;5075130;28;19919;-72
2022/06/28 07:28:32;;;;;;;;;;;11.90;99.90;;;;;;5075294;28;20317;-72
2022/06/28 07:30:58;;;;;;;;;;;11.80;99.90;;;;;;5074920;28;19977;-72
2022/06/28 07:33:25;;;;;;;;;;;11.90;99.90;;;;;;5075058;28;20425;-72
2022/06/28 07:35:51;;;;;;;;;;;11.90;99.90;;;;;;5074962;28;19915;-72
2022/06/28 07:38:18;;;;;;;;;;;11.90;99.90;;;;;;5074724;28;20349;-72
2022/06/28 07:40:45;;;;;;;;;;;11.80;99.90;;;;;;5074840;28;20011;-72
2022/06/28 07:43:11;;;;;;;;;;;11.70;99.90;;;;;;5075267;28;20365;-72
2022/06/28 07:45:39;;;;;;;;;;;11.50;99.90;;;;;;5074809;28;20383;-72
2022/06/28 07:48:07;;;;;;;;;;;11.40;99.90;;;;;;5074765;28;20387;-72
2022/06/28 07:53:21;;;;;;;;;;;11.20;99.90;;;;;;5074859;28;20483;-72
2022/06/28 07:55:48;;;;;;;;;;;11.20;99.90;;;;;;5074300;28;19912;-72
2022/06/28 07:58:17;;;;;;;;;;;11.10;99.90;;;;;;5074485;28;19935;-72
2022/06/28 08:00:44;;;;;;;;;;;11.00;99.90;;;;;;5074514;28;19924;-72
2022/06/28 08:03:11;;;;;;;;;;;10.90;99.90;;;;;;5074766;28;19915;-72
2022/06/28 08:05:38;;;;;;;;;;;10.90;99.90;;;;;;5074423;28;20372;-72
2022/06/28 08:08:05;;;;;;;;;;;10.90;99.90;;;;;;5074348;28;20382;-72
2022/06/28 08:10:31;;;;;;;;;;;10.80;99.90;;;;;;5074222;28;19908;-72
2022/06/28 08:12:58;;;;;;;;;;;10.80;99.90;;;;;;5074315;28;20273;-72
2022/06/28 08:15:24;;;;;;;;;;;10.80;99.90;;;;;;5074370;28;20361;-72
2022/06/28 08:17:51;;;;;;;;;;;10.80;99.90;;;;;;5074234;28;19915;-72
2022/06/28 08:20:18;;;;;;;;;;;10.80;99.90;;;;;;5073565;28;19917;-72
2022/06/28 08:22:44;;;;;;;;;;;10.80;99.90;;;;;;5074127;28;19917;-72
2022/06/28 08:25:11;;;;;;;;;;;10.80;99.90;;;;;;5074145;28;19970;-72
2022/06/28 08:27:38;;;;;;;;;;;10.80;99.90;;;;;;5074036;28;19940;-72
2022/06/28 08:30:07;;;;;;;;;;;10.70;99.90;;;;;;5074176;28;19913;-72
2022/06/28 08:32:34;;;;;;;;;;;10.80;99.90;;;;;;5074248;28;19951;-72
2022/06/28 08:35:01;;;;;;;;;;;10.70;99.90;;;;;;5073919;28;19915;-72
2022/06/28 08:37:27;;;;;;;;;;;10.70;99.90;;;;;;5073760;28;19912;-72
2022/06/28 08:39:54;;;;;;;;;;;10.70;99.90;;;;;;5073881;28;19920;-72
2022/06/28 08:42:26;;;;;;;;;;;10.70;99.90;;;;;;5073175;28;20578;-73
2022/06/28 08:44:53;;;;;;;;;;;10.60;99.90;;;;;;5074059;28;19909;-72
2022/06/28 08:47:20;;;;;;;;;;;10.60;99.90;;;;;;5073966;28;19916;-72
2022/06/28 08:50:01;;;;;;;;;;;10.50;99.90;;;;;;5074036;28;20357;-72
2022/06/28 08:52:28;;;;;;;;;;;10.50;99.90;;;;;;5073882;28;19970;-72
2022/06/28 08:54:54;;;;;;;;;;;10.60;99.90;;;;;;5073734;28;20368;-72
2022/06/28 08:57:22;;;;;;;;;;;10.60;99.90;;;;;;5073785;28;20294;-72
2022/06/28 08:59:49;;;;;;;;;;;10.60;99.90;;;;;;5073716;28;19920;-72
2022/06/28 09:02:16;;;;;;;;;;;10.60;99.90;;;;;;5073627;28;19963;-72
2022/06/28 09:04:50;;;;;;;;;;;10.60;99.90;;;;;;5073584;28;20419;-72
2022/06/28 09:07:17;;;;;;;;;;;10.60;99.90;;;;;;5073985;28;19959;-72
2022/06/28 09:09:44;;;;;;;;;;;10.60;99.90;;;;;;5073714;28;19947;-73
2022/06/28 09:12:11;;;;;;;;;;;10.60;99.90;;;;;;5073525;28;19909;-72
2022/06/28 09:14:38;;;;;;;;;;;10.60;99.90;;;;;;5073518;28;19967;-72
2022/06/28 09:17:22;;;;;;;;;;;10.70;99.90;;;;;;5073693;28;19909;-72
2022/06/28 09:19:53;;;;;;;;;;;10.70;99.90;;;;;;5073421;28;19916;-72
2022/06/28 09:22:30;;;;;;;;;;;10.70;99.90;;;;;;5073462;28;19913;-72
2022/06/28 09:24:58;;;;;;;;;;;10.70;99.90;;;;;;5073901;28;19908;-72
2022/06/28 09:27:29;;;;;;;;;;;10.70;99.90;;;;;;5073632;28;19912;-72
2022/06/28 09:29:56;;;;;;;;;;;10.70;99.90;;;;;;5073345;28;19909;-72
2022/06/28 09:32:30;;;;;;;;;;;10.70;99.90;;;;;;5074978;28;19961;-72
2022/06/28 09:35:01;;;;;;;;;;;10.70;99.90;;;;;;5077188;28;19909;-72
2022/06/28 09:37:35;;;;;;;;;;;10.70;99.90;;;;;;5077158;28;20007;-72
2022/06/28 09:40:15;;;;;;;;;;;10.70;99.90;;;;;;5076895;28;20370;-72
2022/06/28 09:42:43;;;;;;;;;;;10.80;99.90;;;;;;5077092;28;19909;-72
2022/06/28 09:45:11;;;;;;;;;;;10.80;99.90;;;;;;5077144;28;19908;-72
2022/06/28 09:47:42;;;;;;;;;;;10.90;99.90;;;;;;5075401;28;20085;-73
2022/06/28 09:50:09;;;;;;;;;;;10.90;99.90;;;;;;5084420;28;19916;-72
2022/06/28 09:52:41;;;;;;;;;;;10.90;99.90;;;;;;5094529;28;19912;-72
2022/06/28 09:55:08;;;;;;;;;;;10.90;99.90;;;;;;5093279;28;20005;-72
2022/06/28 09:57:35;;;;;;;;;;;10.90;99.90;;;;;;5089163;28;19970;-72
2022/06/28 10:00:03;;;;;;;;;;;10.90;99.90;;;;;;5092935;28;19916;-72
2022/06/28 10:02:30;;;;;;;;;;;10.90;99.90;;;;;;5095685;28;19931;-72
2022/06/28 10:05:00;;;;;;;;;;;10.80;99.90;;;;;;5090943;28;19908;-72
2022/06/28 10:07:31;;;;;;;;;;;10.80;99.90;;;;;;5093887;28;19908;-73
2022/06/28 10:09:58;;;;;;;;;;;10.80;99.90;;;;;;5090222;28;19930;-72
2022/06/28 10:15:10;;;;;;;;;;;10.80;99.90;;;;;;5094597;28;20284;-73
2022/06/28 10:17:44;;;;;;;;;;;10.70;99.90;;;;;;5095310;28;20344;-73
2022/06/28 10:20:13;;;;;;;;;;;10.70;99.90;;;;;;5087814;28;20327;-72
2022/06/28 10:22:39;;;;;;;;;;;10.80;99.90;;;;;;5093570;28;19914;-72
2022/06/28 10:25:24;;;;;;;;;;;10.80;99.90;;;;;;5093223;28;19908;-73
2022/06/28 10:27:52;;;;;;;;;;;10.70;99.90;;;;;;5094607;28;19908;-72
2022/06/28 10:30:20;;;;;;;;;;;10.70;99.90;;;;;;5094993;28;20268;-73
2022/06/28 10:32:55;;;;;;;;;;;10.70;99.90;;;;;;5092634;28;19908;-73
2022/06/28 10:35:37;;;;;;;;;;;10.70;99.90;;;;;;5091951;28;20284;-73
2022/06/28 10:38:09;;;;;;;;;;;10.70;99.90;;;;;;5094516;28;19951;-73
2022/06/28 10:40:36;;;;;;;;;;;10.70;99.90;;;;;;5091928;28;19979;-72
2022/06/28 10:43:03;;;;;;;;;;;10.70;99.90;;;;;;5094079;28;19934;-73
2022/06/28 10:45:49;;;;;;;;;;;10.70;99.90;;;;;;5093579;28;19908;-72
2022/06/28 10:48:16;;;;;;;;;;;10.70;99.90;;;;;;5095009;28;19912;-73
2022/06/28 10:51:01;;;;;;;;;;;10.70;99.90;;;;;;5089642;28;20288;-72
2022/06/28 10:53:50;;;;;;;;;;;10.70;99.90;;;;;;5092918;28;20374;-73
2022/06/28 10:56:18;;;;;;;;;;;10.70;99.90;;;;;;5090914;28;20387;-72
2022/06/28 10:58:56;;;;;;;;;;;10.70;99.90;;;;;;5093565;28;20015;-73
2022/06/28 11:01:42;;;;;;;;;;;10.70;99.90;;;;;;5091925;28;19908;-73
2022/06/28 11:04:24;;;;;;;;;;;10.70;99.90;;;;;;5091574;28;20006;-73
2022/06/28 11:06:53;;;;;;;;;;;10.60;99.90;;;;;;5093516;28;19931;-73
2022/06/28 11:09:35;;;;;;;;;;;10.60;99.90;;;;;;5090930;28;20010;-72
2022/06/28 11:12:19;;;;;;;;;;;10.60;99.90;;;;;;5093341;28;19915;-72
2022/06/28 11:14:54;;;;;;;;;;;10.60;99.90;;;;;;5092053;28;19973;-73
2022/06/28 11:17:22;;;;;;;;;;;10.60;99.90;;;;;;5094096;28;19912;-73
2022/06/28 11:19:54;;;;;;;;;;;10.60;99.90;;;;;;5093706;28;19924;-72
2022/06/28 11:22:22;;;;;;;;;;;10.50;99.90;;;;;;5091967;28;19961;-73
2022/06/28 11:24:49;;;;;;;;;;;10.60;99.90;;;;;;5090077;28;20312;-73
2022/06/28 11:27:22;;;;;;;;;;;10.50;99.90;;;;;;5092240;28;19915;-73
2022/06/28 11:29:53;;;;;;;;;;;10.50;99.90;;;;;;5087689;28;19920;-73
2022/06/28 11:32:26;;;;;;;;;;;10.50;99.90;;;;;;5070854;28;20318;-73
2022/06/28 11:35:02;;;;;;;;;;;10.50;99.90;;;;;;5054351;28;19909;-73
2022/06/28 11:37:29;;;;;;;;;;;10.50;99.90;;;;;;5055919;28;19955;-73
2022/06/28 11:39:57;;;;;;;;;;;10.50;99.90;;;;;;5054531;28;19921;-73
2022/06/28 11:42:24;;;;;;;;;;;10.50;99.90;;;;;;5055083;28;19909;-73
2022/06/28 11:44:51;;;;;;;;;;;10.50;99.90;;;;;;5054691;28;19909;-73
2022/06/28 11:47:19;;;;;;;;;;;10.50;99.90;;;;;;5054800;28;20269;-73
2022/06/28 11:49:50;;;;;;;;;;;10.50;99.90;;;;;;5054678;28;19920;-73
2022/06/28 11:52:17;;;;;;;;;;;10.50;99.90;;;;;;5073186;28;19915;-73
2022/06/28 11:54:45;;;;;;;;;;;10.50;99.90;;;;;;5073726;28;19908;-73
2022/06/28 11:57:15;;;;;;;;;;;10.50;99.90;;;;;;5072899;28;20007;-72
2022/06/28 11:59:56;;;;;;;;;;;10.50;99.90;;;;;;5058685;28;19952;-72
2022/06/28 12:02:37;;;;;;;;;;;10.50;99.90;;;;;;5067493;28;20384;-73
2022/06/28 12:05:04;;;;;;;;;;;10.40;99.90;;;;;;5091605;28;20237;-73
2022/06/28 12:07:37;;;;;;;;;;;10.40;99.90;;;;;;5078956;28;19908;-73
2022/06/28 12:10:04;;;;;;;;;;;10.40;99.90;;;;;;5072951;28;19931;-73
2022/06/28 12:12:30;;;;;;;;;;;10.40;99.90;;;;;;5073259;28;19931;-73
2022/06/28 12:14:57;;;;;;;;;;;10.40;99.90;;;;;;5072185;28;19962;-73
2022/06/28 12:17:24;;;;;;;;;;;10.40;99.90;;;;;;5072850;28;19908;-73
2022/06/28 12:19:51;;;;;;;;;;;10.30;99.90;;;;;;5073219;28;19928;-73
2022/06/28 12:22:25;;;;;;;;;;;10.30;99.90;;;;;;5079295;28;19947;-73
2022/06/28 12:24:54;;;;;;;;;;;10.30;99.90;;;;;;5092056;28;20319;-73
2022/06/28 12:27:22;;;;;;;;;;;10.30;99.90;;;;;;5075781;28;19909;-73
2022/06/28 12:29:50;;;;;;;;;;;10.20;99.90;;;;;;5072880;28;19908;-73
2022/06/28 12:32:17;;;;;;;;;;;10.20;99.90;;;;;;5073504;28;20408;-73
2022/06/28 12:34:44;;;;;;;;;;;10.10;99.90;;;;;;5073530;28;19916;-73
2022/06/28 12:37:11;;;;;;;;;;;10.10;99.90;;;;;;5072798;28;19953;-73
2022/06/28 12:39:38;;;;;;;;;;;10.00;99.90;;;;;;5073182;28;19916;-73
2022/06/28 12:42:05;;;;;;;;;;;10.00;99.90;;;;;;5073451;28;19923;-73
2022/06/28 12:44:32;;;;;;;;;;;10.00;99.90;;;;;;5073322;28;19931;-73
2022/06/28 12:46:59;;;;;;;;;;;9.90;99.90;;;;;;5073493;28;19973;-73
2022/06/28 12:49:25;;;;;;;;;;;9.90;99.90;;;;;;5073249;28;19917;-73
2022/06/28 12:51:52;;;;;;;;;;;9.90;99.90;;;;;;5073254;28;19909;-73
2022/06/28 12:54:19;;;;;;;;;;;9.90;99.90;;;;;;5072732;28;19919;-73
2022/06/28 12:56:46;;;;;;;;;;;9.90;99.90;;;;;;5073681;28;19909;-73
2022/06/28 12:59:13;;;;;;;;;;;9.90;99.90;;;;;;5072730;28;19923;-72
2022/06/28 13:01:39;;;;;;;;;;;9.90;99.90;;;;;;5072672;28;19909;-73
2022/06/28 13:04:06;;;;;;;;;;;9.90;99.90;;;;;;5073637;28;19970;-74
2022/06/28 13:06:33;;;;;;;;;;;9.90;99.90;;;;;;5073725;28;19951;-72
2022/06/28 13:09:00;;;;;;;;;;;9.90;99.90;;;;;;5078009;28;19915;-72
2022/06/28 13:11:27;;;;;;;;;;;9.90;99.90;;;;;;5077726;28;19909;-73
2022/06/28 13:13:53;;;;;;;;;;;9.90;99.90;;;;;;5077866;28;19913;-72
2022/06/28 13:16:20;;;;;;;;;;;9.80;99.90;;;;;;5077426;28;19909;-73
2022/06/28 13:18:47;;;;;;;;;;;9.80;99.90;;;;;;5077582;28;19954;-72
2022/06/28 13:21:13;;;;;;;;;;;9.80;99.90;;;;;;5077786;28;19999;-72
2022/06/28 13:23:40;;;;;;;;;;;9.80;99.90;;;;;;5077640;28;20354;-72
2022/06/28 13:26:06;;;;;;;;;;;9.80;99.90;;;;;;5077608;28;19935;-72
2022/06/28 13:28:33;;;;;;;;;;;9.80;99.90;;;;;;5077635;28;19978;-72
2022/06/28 13:31:00;;;;;;;;;;;9.80;99.90;;;;;;5077738;28;19949;-72
2022/06/28 13:33:27;;;;;;;;;;;9.80;99.90;;;;;;5077313;28;19916;-72
2022/06/28 13:35:55;;;;;;;;;;;9.80;99.90;;;;;;5077129;28;19909;-73
2022/06/28 13:38:22;;;;;;;;;;;9.80;99.90;;;;;;5077038;28;19920;-73
2022/06/28 13:40:48;;;;;;;;;;;9.80;99.90;;;;;;5077279;28;19920;-73
2022/06/28 13:43:33;;;;;;;;;;;9.80;99.90;;;;;;5077212;28;19913;-72
2022/06/28 13:46:04;;;;;;;;;;;9.80;99.90;;;;;;5077310;28;19916;-72
2022/06/28 13:48:31;;;;;;;;;;;9.80;99.90;;;;;;5076945;28;19995;-73
2022/06/28 13:50:58;;;;;;;;;;;9.80;99.90;;;;;;5077035;28;19908;-72
2022/06/28 13:53:25;;;;;;;;;;;9.80;99.90;;;;;;5077440;28;19947;-74
2022/06/28 13:55:52;;;;;;;;;;;9.80;99.90;;;;;;5076797;28;19989;-72
2022/06/28 13:58:19;;;;;;;;;;;9.80;99.90;;;;;;5077084;28;19954;-72
2022/06/28 14:00:46;;;;;;;;;;;9.80;99.90;;;;;;5076753;28;19923;-72
2022/06/28 14:03:12;;;;;;;;;;;9.80;99.90;;;;;;5076864;28;19991;-73
2022/06/28 14:05:39;;;;;;;;;;;9.80;99.90;;;;;;5076857;28;19955;-73
2022/06/28 14:08:07;;;;;;;;;;;9.80;99.90;;;;;;5076545;28;19908;-72
2022/06/28 14:10:34;;;;;;;;;;;9.80;99.90;;;;;;5076797;28;19969;-72
2022/06/28 14:13:02;;;;;;;;;;;9.90;99.90;;;;;;5076816;28;19909;-72
2022/06/28 14:15:29;;;;;;;;;;;9.90;99.90;;;;;;5076451;28;19909;-72
2022/06/28 14:17:55;;;;;;;;;;;9.80;99.90;;;;;;5076135;28;19966;-72
2022/06/28 14:20:22;;;;;;;;;;;9.80;99.90;;;;;;5075805;28;20372;-72
2022/06/28 14:22:50;;;;;;;;;;;9.80;99.90;;;;;;5076585;28;20380;-72
2022/06/28 14:25:17;;;;;;;;;;;9.80;99.90;;;;;;5076765;28;19908;-72
2022/06/28 14:27:44;;;;;;;;;;;9.80;99.90;;;;;;5076492;28;19913;-72
2022/06/28 14:30:11;;;;;;;;;;;9.90;99.90;;;;;;5075722;28;19916;-72
2022/06/28 14:32:37;;;;;;;;;;;9.80;99.90;;;;;;5075756;28;19908;-72
2022/06/28 14:35:05;;;;;;;;;;;9.80;99.90;;;;;;5075670;28;19908;-73